createdAt,value
2019-01-19T00:01:25.835Z,21.10
2019-01-19T00:04:24.444Z,17.87
2019-01-19T00:07:01.679Z,18.42
2019-01-19T00:09:41.826Z,18.00
2019-01-19T00:12:29.689Z,19.67
2019-01-19T00:14:58.353Z,15.48
2019-01-19T00:17:51.016Z,19.55
2019-01-19T00:20:28.505Z,23.83
2019-01-19T00:23:15.049Z,17.40
2019-01-19T00:25:49.668Z,16.42
2019-01-19T00:28:37.531Z,17.85
2019-01-19T00:31:17.945Z,23.45
2019-01-19T00:34:07.676Z,19.57
2019-01-19T00:36:45.025Z,18.32
2019-01-19T00:39:28.192Z,19.12
2019-01-19T00:42:17.512Z,19.57
2019-01-19T00:44:51.776Z,19.50
2019-01-19T00:47:39.488Z,16.52
2019-01-19T00:50:20.001Z,18.82
2019-01-19T00:52:51.637Z,16.73
2019-01-19T00:55:29.264Z,21.57
2019-01-19T00:58:12.491Z,18.55
2019-01-19T01:00:47.105Z,20.40
2019-01-19T01:03:21.250Z,14.63
2019-01-19T01:05:52.908Z,17.02
2019-01-19T01:08:45.450Z,20.00
2019-01-19T01:11:19.694Z,20.55
2019-01-19T01:14:02.855Z,15.28
2019-01-19T01:16:37.177Z,20.20
2019-01-19T01:19:11.653Z,18.40
2019-01-19T01:21:49.138Z,22.13
2019-01-19T01:24:35.547Z,19.05
2019-01-19T01:27:16.599Z,18.55
2019-01-19T01:30:06.015Z,18.77
2019-01-19T01:32:52.696Z,16.55
2019-01-19T01:35:54.288Z,15.93
2019-01-19T01:38:28.374Z,19.70
2019-01-19T01:41:32.744Z,18.70
2019-01-19T01:44:26.680Z,20.52
2019-01-19T01:47:28.056Z,18.23
2019-01-19T01:50:16.029Z,18.70
2019-01-19T01:52:56.426Z,21.93
2019-01-19T01:55:30.891Z,17.57
2019-01-19T01:58:02.557Z,17.45
2019-01-19T02:00:34.199Z,18.07
2019-01-19T02:03:25.145Z,20.90
2019-01-19T02:05:59.347Z,23.70
2019-01-19T02:08:31.085Z,23.70
2019-01-19T02:11:14.356Z,21.55
2019-01-19T02:14:04.104Z,20.48
2019-01-19T02:16:47.667Z,19.57
2019-01-19T02:19:28.101Z,23.85
2019-01-19T02:22:09.403Z,21.80
2019-01-19T02:25:06.346Z,18.80
2019-01-19T02:28:01.683Z,15.00
2019-01-19T02:30:57.169Z,15.85
2019-01-19T02:33:37.944Z,17.07
2019-01-19T02:36:24.243Z,20.37
2019-01-19T02:39:10.521Z,17.75
2019-01-19T02:41:58.564Z,20.15
2019-01-19T02:44:33.012Z,16.80
2019-01-19T02:47:16.459Z,21.73
2019-01-19T02:49:54.363Z,17.00
2019-01-19T02:52:41.463Z,18.70
2019-01-19T02:55:15.945Z,19.00
2019-01-19T02:57:59.585Z,15.03
2019-01-19T03:00:36.839Z,17.85
2019-01-19T03:03:11.141Z,19.90
2019-01-19T03:05:55.964Z,15.43
2019-01-19T03:08:22.065Z,16.52
2019-01-19T03:11:02.489Z,20.70
2019-01-19T03:13:53.412Z,20.55
2019-01-19T03:16:30.816Z,17.48
2019-01-19T03:19:18.882Z,17.70
2019-01-19T03:22:02.353Z,16.12
2019-01-19T03:24:42.573Z,19.87
2019-01-19T03:27:22.907Z,17.15
2019-01-19T03:29:57.147Z,18.40
2019-01-19T03:32:43.405Z,15.88
2019-01-19T03:35:15.068Z,17.50
2019-01-19T03:38:02.936Z,16.12
2019-01-19T03:40:46.304Z,17.30
2019-01-19T03:43:17.932Z,15.78
2019-01-19T03:46:12.360Z,15.20
2019-01-19T03:48:49.615Z,21.48
2019-01-19T03:51:29.982Z,16.60
2019-01-19T03:54:04.143Z,19.87
2019-01-19T03:56:38.599Z,15.45
2019-01-19T03:59:13.011Z,18.42
2019-01-19T04:01:56.485Z,21.40
2019-01-19T04:04:37.080Z,20.68
2019-01-19T04:07:17.437Z,21.52
2019-01-19T04:10:00.951Z,17.95
2019-01-19T04:12:47.261Z,18.87
2019-01-19T04:15:24.576Z,19.40
2019-01-19T04:18:10.996Z,17.48
2019-01-19T04:20:48.282Z,17.75
2019-01-19T04:23:16.843Z,18.40
2019-01-19T04:25:48.503Z,16.42
2019-01-19T04:28:18.233Z,16.07
2019-01-19T04:30:46.893Z,21.37
2019-01-19T04:33:15.523Z,18.23
2019-01-19T04:35:44.117Z,18.67
2019-01-19T04:38:12.940Z,17.35
2019-01-19T04:40:41.535Z,19.90
2019-01-19T04:43:10.097Z,19.52
2019-01-19T04:45:38.683Z,17.73
2019-01-19T04:48:07.261Z,21.82
2019-01-19T04:50:35.906Z,21.50
2019-01-19T04:53:04.609Z,17.65
2019-01-19T04:55:33.192Z,17.73
2019-01-19T04:58:01.756Z,19.65
2019-01-19T05:00:30.411Z,17.55
2019-01-19T05:02:58.971Z,20.77
2019-01-19T05:05:27.585Z,18.80
2019-01-19T05:07:56.146Z,17.95
2019-01-19T05:10:24.699Z,22.37
2019-01-19T05:12:53.364Z,20.35
2019-01-19T05:15:21.920Z,19.48
2019-01-19T05:17:50.507Z,16.45
2019-01-19T05:20:19.152Z,18.27
2019-01-19T05:22:47.808Z,14.70
2019-01-19T05:25:16.511Z,17.80
2019-01-19T05:27:45.241Z,18.05
2019-01-19T05:30:16.511Z,16.73
2019-01-19T05:32:45.176Z,18.75
2019-01-19T05:35:14.240Z,18.02
2019-01-19T05:37:42.825Z,19.75
2019-01-19T05:40:12.824Z,18.92
2019-01-19T05:42:41.547Z,18.05
2019-01-19T05:45:12.452Z,16.57
2019-01-19T05:47:41.112Z,17.90
2019-01-19T05:50:18.199Z,18.77
2019-01-19T05:52:46.798Z,18.82
2019-01-19T05:55:15.429Z,15.83
2019-01-19T05:57:44.086Z,15.40
2019-01-19T06:00:22.652Z,13.60
2019-01-19T06:02:51.248Z,15.80
2019-01-19T06:05:19.868Z,14.83
2019-01-19T06:07:48.455Z,16.48
2019-01-19T06:10:17.841Z,15.35
2019-01-19T06:12:46.509Z,16.55
2019-01-19T06:15:18.048Z,12.93
2019-01-19T06:17:46.632Z,13.48
2019-01-19T06:20:17.096Z,14.33
2019-01-19T06:22:45.791Z,10.63
2019-01-19T06:25:15.723Z,15.38
2019-01-19T06:27:44.414Z,14.73
2019-01-19T06:30:16.071Z,17.05
2019-01-19T06:32:44.628Z,17.98
2019-01-19T06:35:13.289Z,16.55
2019-01-19T06:37:41.849Z,16.32
2019-01-19T06:40:12.974Z,20.23
2019-01-19T06:42:41.676Z,16.97
2019-01-19T06:45:13.328Z,16.15
2019-01-19T06:47:41.962Z,18.42
2019-01-19T06:50:13.449Z,14.38
2019-01-19T06:52:42.012Z,16.27
2019-01-19T06:55:13.407Z,15.60
2019-01-19T06:57:41.977Z,15.15
2019-01-19T07:00:18.128Z,17.02
2019-01-19T07:02:46.761Z,17.07
2019-01-19T07:05:15.489Z,17.70
2019-01-19T07:07:44.192Z,15.68
2019-01-19T07:10:21.180Z,19.02
2019-01-19T07:12:49.746Z,19.52
2019-01-19T07:15:18.477Z,18.73
2019-01-19T07:17:47.095Z,16.57
2019-01-19T07:20:21.094Z,17.25
2019-01-19T07:22:49.746Z,16.90
2019-01-19T07:25:18.324Z,13.70
2019-01-19T07:27:46.965Z,13.43
2019-01-19T07:30:16.792Z,14.23
2019-01-19T07:32:46.588Z,14.63
2019-01-19T07:35:16.016Z,14.28
2019-01-19T07:37:44.718Z,15.00
2019-01-19T07:40:15.276Z,16.27
2019-01-19T07:42:44.399Z,17.73
2019-01-19T07:45:15.027Z,14.45
2019-01-19T07:47:44.800Z,16.57
2019-01-19T07:50:15.525Z,20.37
2019-01-19T07:52:44.300Z,18.27
2019-01-19T07:55:14.834Z,18.90
2019-01-19T07:57:43.532Z,17.82
2019-01-19T08:00:15.324Z,18.12
2019-01-19T08:02:43.880Z,21.70
2019-01-19T08:05:12.578Z,16.82
2019-01-19T08:07:41.243Z,17.55
2019-01-19T08:10:15.679Z,14.33
2019-01-19T08:12:44.332Z,21.00
2019-01-19T08:15:15.328Z,19.55
2019-01-19T08:17:44.000Z,17.65
2019-01-19T08:20:14.382Z,13.80
2019-01-19T08:22:43.033Z,15.72
2019-01-19T08:25:12.928Z,13.83
2019-01-19T08:27:41.657Z,14.05
2019-01-19T08:30:21.139Z,15.48
2019-01-19T08:32:49.968Z,15.03
2019-01-19T08:35:18.932Z,17.82
2019-01-19T08:37:48.281Z,11.35
2019-01-19T08:40:28.431Z,11.83
2019-01-19T08:42:58.900Z,13.50
2019-01-19T08:45:27.444Z,10.85
2019-01-19T08:47:56.168Z,12.43
2019-01-19T08:50:24.792Z,15.45
2019-01-19T08:52:53.447Z,15.93
2019-01-19T08:55:22.136Z,12.73
2019-01-19T08:57:50.720Z,15.68
2019-01-19T09:00:20.826Z,12.93
2019-01-19T09:02:49.552Z,14.33
2019-01-19T09:05:18.247Z,12.40
2019-01-19T09:07:46.898Z,11.80
2019-01-19T09:10:16.891Z,12.90
2019-01-19T09:12:45.607Z,11.40
2019-01-19T09:15:16.404Z,11.10
2019-01-19T09:17:45.131Z,10.70
2019-01-19T09:20:15.937Z,16.05
2019-01-19T09:22:45.025Z,13.85
2019-01-19T09:25:15.389Z,12.05
2019-01-19T09:27:44.110Z,9.80
2019-01-19T09:30:15.735Z,12.23
2019-01-19T09:32:44.452Z,9.80
2019-01-19T09:35:13.149Z,14.50
2019-01-19T09:37:41.709Z,10.70
2019-01-19T09:40:13.132Z,13.25
2019-01-19T09:42:41.856Z,11.35
2019-01-19T09:45:13.148Z,10.65
2019-01-19T09:47:41.865Z,10.15
2019-01-19T09:50:16.358Z,10.50
2019-01-19T09:52:44.913Z,10.58
2019-01-19T09:55:13.641Z,9.83
2019-01-19T09:57:42.406Z,11.38
2019-01-19T10:00:19.840Z,10.95
2019-01-19T10:02:48.475Z,21.57
2019-01-19T10:05:20.069Z,12.05
2019-01-19T10:07:48.974Z,11.57
2019-01-19T10:10:17.695Z,7.97
2019-01-19T10:12:46.388Z,12.33
2019-01-19T10:15:17.578Z,9.88
2019-01-19T10:17:46.269Z,8.45
2019-01-19T10:20:17.923Z,9.13
2019-01-19T10:22:46.630Z,8.95
2019-01-19T10:25:16.461Z,10.65
2019-01-19T10:27:45.329Z,12.85
2019-01-19T10:30:16.721Z,7.25
2019-01-19T10:32:45.403Z,8.50
2019-01-19T10:35:15.041Z,7.70
2019-01-19T10:37:43.748Z,6.53
2019-01-19T10:40:14.879Z,10.58
2019-01-19T10:42:43.506Z,6.80
2019-01-19T10:45:21.188Z,12.18
2019-01-19T10:47:50.080Z,7.28
2019-01-19T10:50:19.332Z,4.65
2019-01-19T10:52:48.332Z,6.60
2019-01-19T10:55:19.369Z,10.13
2019-01-19T10:57:48.155Z,8.10
2019-01-19T11:00:25.017Z,11.10
2019-01-19T11:02:54.005Z,8.50
2019-01-19T11:05:22.729Z,7.78
2019-01-19T11:07:51.499Z,7.62
2019-01-19T11:10:22.708Z,7.75
2019-01-19T11:12:51.411Z,7.25
2019-01-19T11:15:20.231Z,8.58
2019-01-19T11:17:48.857Z,9.50
2019-01-19T11:20:25.653Z,6.72
2019-01-19T11:22:54.709Z,10.65
2019-01-19T11:25:23.433Z,8.35
2019-01-19T11:27:52.129Z,9.45
2019-01-19T11:30:29.231Z,10.08
2019-01-19T11:32:57.929Z,7.25
2019-01-19T11:35:27.115Z,8.60
2019-01-19T11:37:55.791Z,7.33
2019-01-19T11:40:27.269Z,9.10
2019-01-19T11:42:55.848Z,8.90
2019-01-19T11:45:24.548Z,7.70
2019-01-19T11:47:53.200Z,10.93
2019-01-19T11:50:22.716Z,7.42
2019-01-19T11:52:51.593Z,7.25
2019-01-19T11:55:21.269Z,7.05
2019-01-19T11:57:52.554Z,7.40
2019-01-19T12:00:26.824Z,7.95
2019-01-19T12:02:55.955Z,7.30
2019-01-19T12:05:25.479Z,7.25
2019-01-19T12:07:54.207Z,7.40
2019-01-19T12:10:27.966Z,9.33
2019-01-19T12:12:57.580Z,8.80
2019-01-19T12:15:26.478Z,9.45
2019-01-19T12:17:55.150Z,8.45
2019-01-19T12:20:26.512Z,9.30
2019-01-19T12:22:55.331Z,7.00
2019-01-19T12:25:25.234Z,16.70
2019-01-19T12:27:53.892Z,9.60
2019-01-19T12:30:30.991Z,9.63
2019-01-19T12:32:59.721Z,5.95
2019-01-19T12:35:28.817Z,6.67
2019-01-19T12:37:58.542Z,5.80
2019-01-19T12:40:28.938Z,8.38
2019-01-19T12:43:12.452Z,9.73
2019-01-19T12:45:44.079Z,10.43
2019-01-19T12:48:12.726Z,6.27
2019-01-19T12:50:41.623Z,6.72
2019-01-19T12:53:10.368Z,6.08
2019-01-19T12:55:38.909Z,6.20
2019-01-19T12:58:08.538Z,9.20
2019-01-19T13:00:37.092Z,6.50
2019-01-19T13:03:06.812Z,6.03
2019-01-19T13:05:47.319Z,6.90
2019-01-19T13:08:19.444Z,8.00
2019-01-19T13:10:56.730Z,7.28
2019-01-19T13:13:25.248Z,5.70
2019-01-19T13:16:08.643Z,6.97
2019-01-19T13:18:46.112Z,6.80
2019-01-19T13:21:43.350Z,6.00
2019-01-19T13:24:32.916Z,10.00
2019-01-19T13:27:19.433Z,9.40
2019-01-19T13:30:02.705Z,8.55
2019-01-19T13:32:46.248Z,5.53
2019-01-19T13:35:23.614Z,7.90
2019-01-19T13:38:03.889Z,5.87
2019-01-19T13:40:47.400Z,8.35
2019-01-19T13:43:38.230Z,9.03
2019-01-19T13:46:15.452Z,6.50
2019-01-19T13:49:12.467Z,5.12
2019-01-19T13:51:46.698Z,10.10
2019-01-19T13:54:37.411Z,8.20
2019-01-19T13:57:09.036Z,5.22
2019-01-19T13:59:43.639Z,6.12
2019-01-19T14:02:43.849Z,5.83
2019-01-19T14:05:36.200Z,6.42
2019-01-19T14:08:40.808Z,6.87
2019-01-19T14:11:23.829Z,7.73
2019-01-19T14:14:11.961Z,5.05
2019-01-19T14:16:58.291Z,7.58
2019-01-19T14:19:44.810Z,7.42
2019-01-19T14:22:41.589Z,8.50
2019-01-19T14:25:33.910Z,6.75
2019-01-19T14:28:14.117Z,11.05
2019-01-19T14:31:00.675Z,12.93
2019-01-19T14:33:32.311Z,12.18
2019-01-19T14:36:09.680Z,7.40
2019-01-19T14:39:02.128Z,10.93
2019-01-19T14:41:45.388Z,11.95
2019-01-19T14:44:29.107Z,9.88
2019-01-19T14:47:06.385Z,8.60
2019-01-19T14:49:55.886Z,10.03
2019-01-19T14:52:30.446Z,9.13
2019-01-19T14:55:22.848Z,8.43
2019-01-19T14:57:56.934Z,9.35
2019-01-19T15:00:31.084Z,13.05
2019-01-19T15:03:13.787Z,9.18
2019-01-19T15:05:45.463Z,14.00
2019-01-19T15:08:22.637Z,8.00
2019-01-19T15:10:54.300Z,10.45
2019-01-19T15:13:37.580Z,9.63
2019-01-19T15:16:23.868Z,11.73
2019-01-19T15:19:05.919Z,11.70
2019-01-19T15:21:58.591Z,14.33
2019-01-19T15:24:35.901Z,13.98
2019-01-19T15:27:13.191Z,12.00
2019-01-19T15:30:10.008Z,12.13
2019-01-19T15:32:53.328Z,13.90
2019-01-19T15:35:42.613Z,10.18
2019-01-19T15:38:25.860Z,12.85
2019-01-19T15:41:21.559Z,10.95
2019-01-19T15:44:04.987Z,8.53
2019-01-19T15:46:41.913Z,13.05
2019-01-19T15:49:35.801Z,14.98
2019-01-19T15:52:07.476Z,11.18
2019-01-19T15:54:44.762Z,10.35
2019-01-19T15:57:31.501Z,11.30
2019-01-19T16:00:14.800Z,10.65
2019-01-19T16:03:03.037Z,11.57
2019-01-19T16:05:57.173Z,13.68
2019-01-19T16:08:37.344Z,10.23
2019-01-19T16:11:17.584Z,13.60
2019-01-19T16:14:07.042Z,13.35
2019-01-19T16:16:56.389Z,17.12
2019-01-19T16:19:39.743Z,21.73
2019-01-19T16:22:14.073Z,14.03
2019-01-19T16:24:54.404Z,16.45
2019-01-19T16:27:37.697Z,14.38
2019-01-19T16:30:40.573Z,14.83
2019-01-19T16:33:17.894Z,11.63
2019-01-19T16:36:04.527Z,13.35
2019-01-19T16:38:47.772Z,15.00
2019-01-19T16:41:35.537Z,12.28
2019-01-19T16:44:16.192Z,13.72
2019-01-19T16:46:59.931Z,15.35
2019-01-19T16:49:31.563Z,16.15
2019-01-19T16:52:31.814Z,14.63
2019-01-19T16:55:06.215Z,14.43
2019-01-19T16:57:49.855Z,14.73
2019-01-19T17:00:37.601Z,13.00
2019-01-19T17:03:24.208Z,19.75
2019-01-19T17:06:07.548Z,14.28
2019-01-19T17:08:39.203Z,13.13
2019-01-19T17:11:34.792Z,13.55
2019-01-19T17:14:09.120Z,10.88
2019-01-19T17:16:43.256Z,12.07
2019-01-19T17:19:17.467Z,14.03
2019-01-19T17:21:55.020Z,15.40
2019-01-19T17:24:41.354Z,14.60
2019-01-19T17:27:15.780Z,12.37
2019-01-19T17:30:05.048Z,11.28
2019-01-19T17:32:48.608Z,11.18
2019-01-19T17:35:22.943Z,14.50
2019-01-19T17:37:57.339Z,13.45
2019-01-19T17:40:49.995Z,10.60
2019-01-19T17:43:21.632Z,12.80
2019-01-19T17:46:07.956Z,11.83
2019-01-19T17:49:01.971Z,13.15
2019-01-19T17:51:33.600Z,11.85
2019-01-19T17:54:39.580Z,12.13
2019-01-19T17:57:31.832Z,12.03
2019-01-19T18:00:18.400Z,12.43
2019-01-19T18:02:58.507Z,13.05
2019-01-19T18:05:35.680Z,11.78
2019-01-19T18:08:19.220Z,13.28
2019-01-19T18:10:56.790Z,13.18
2019-01-19T18:13:40.493Z,16.23
2019-01-19T18:16:34.280Z,14.63
2019-01-19T18:19:11.919Z,18.07
2019-01-19T18:22:02.886Z,15.70
2019-01-19T18:24:37.053Z,12.20
2019-01-19T18:27:11.556Z,17.23
2019-01-19T18:30:17.547Z,15.05
2019-01-19T18:32:52.152Z,14.00
2019-01-19T18:35:35.554Z,15.78
2019-01-19T18:38:16.107Z,24.75
2019-01-19T18:40:47.770Z,20.32
2019-01-19T18:43:25.379Z,17.98
2019-01-19T18:46:08.881Z,18.60
2019-01-19T18:48:40.519Z,22.32
2019-01-19T18:51:32.913Z,16.48
2019-01-19T18:54:10.205Z,16.60
2019-01-19T18:57:03.969Z,16.12
2019-01-19T18:59:35.599Z,16.48
2019-01-19T19:02:25.210Z,18.40
2019-01-19T19:05:25.341Z,16.30
2019-01-19T19:08:02.612Z,19.52
2019-01-19T19:10:59.686Z,18.05
2019-01-19T19:13:54.911Z,22.98
2019-01-19T19:16:41.325Z,17.10
2019-01-19T19:19:29.217Z,17.55
2019-01-19T19:22:12.936Z,16.90
2019-01-19T19:25:11.544Z,16.02
2019-01-19T19:28:03.699Z,18.73
2019-01-19T19:30:49.988Z,16.77
2019-01-19T19:33:39.337Z,16.42
2019-01-19T19:36:30.340Z,17.40
2019-01-19T19:39:08.129Z,19.55
2019-01-19T19:41:48.340Z,21.75
2019-01-19T19:44:37.860Z,19.73
2019-01-19T19:47:15.018Z,19.90
2019-01-19T19:50:17.973Z,18.85
2019-01-19T19:52:46.553Z,17.42
2019-01-19T19:55:14.066Z,19.12
2019-01-19T19:57:42.727Z,26.75
2019-01-19T20:00:12.041Z,25.60
2019-01-19T20:02:40.647Z,28.10
2019-01-19T20:05:10.257Z,23.83
2019-01-19T20:07:38.848Z,19.05
2019-01-19T20:10:16.981Z,18.25
2019-01-19T20:12:41.431Z,16.93
2019-01-19T20:15:10.242Z,19.10
2019-01-19T20:17:38.963Z,20.37
2019-01-19T20:20:10.080Z,16.17
2019-01-19T20:22:38.636Z,19.32
2019-01-19T20:25:08.118Z,21.30
2019-01-19T20:27:36.673Z,20.48
2019-01-19T20:30:08.333Z,19.12
2019-01-19T20:32:36.973Z,19.98
2019-01-19T20:35:07.250Z,21.27
2019-01-19T20:37:35.809Z,19.82
2019-01-19T20:40:07.644Z,21.68
2019-01-19T20:42:36.208Z,22.10
2019-01-19T20:45:08.156Z,20.17
2019-01-19T20:47:36.719Z,20.50
2019-01-19T20:50:08.607Z,24.87
2019-01-19T20:52:37.165Z,24.40
2019-01-19T20:55:10.573Z,18.17
2019-01-19T20:57:39.268Z,20.80
2019-01-19T21:00:11.310Z,24.15
2019-01-19T21:02:39.855Z,20.95
2019-01-19T21:05:08.580Z,23.18
2019-01-19T21:07:37.212Z,21.23
2019-01-19T21:10:07.711Z,20.82
2019-01-19T21:12:36.408Z,22.87
2019-01-19T21:15:13.483Z,21.75
2019-01-19T21:17:42.040Z,23.55
2019-01-19T21:20:13.577Z,27.52
2019-01-19T21:22:42.208Z,20.25
2019-01-19T21:25:12.342Z,23.77
2019-01-19T21:27:40.963Z,24.77
2019-01-19T21:30:12.166Z,22.55
2019-01-19T21:32:40.720Z,20.30
2019-01-19T21:35:09.451Z,22.90
2019-01-19T21:37:38.012Z,20.48
2019-01-19T21:40:10.012Z,21.48
2019-01-19T21:42:38.577Z,21.52
2019-01-19T21:45:12.920Z,20.92
2019-01-19T21:47:41.488Z,23.60
2019-01-19T21:50:11.598Z,23.73
2019-01-19T21:52:40.161Z,26.30
2019-01-19T21:55:09.958Z,24.75
2019-01-19T21:57:38.553Z,22.00
2019-01-19T22:00:21.898Z,23.35
2019-01-19T22:02:50.589Z,25.50
2019-01-19T22:05:19.153Z,24.82
2019-01-19T22:07:47.812Z,27.67
2019-01-19T22:10:19.078Z,29.37
2019-01-19T22:12:47.737Z,25.57
2019-01-19T22:15:17.741Z,26.37
2019-01-19T22:17:46.332Z,24.60
2019-01-19T22:20:16.959Z,35.13
2019-01-19T22:22:45.589Z,41.37
2019-01-19T22:25:14.294Z,27.65
2019-01-19T22:27:44.593Z,29.98
2019-01-19T22:30:15.906Z,28.62
2019-01-19T22:32:44.496Z,27.30
2019-01-19T22:35:13.307Z,29.05
2019-01-19T22:37:41.959Z,30.20
2019-01-19T22:40:15.927Z,28.20
2019-01-19T22:42:44.589Z,28.17
2019-01-19T22:45:17.027Z,23.92
2019-01-19T22:47:45.853Z,26.15
2019-01-19T22:50:18.003Z,28.60
2019-01-19T22:52:46.740Z,38.40
2019-01-19T22:55:15.530Z,37.33
2019-01-19T22:57:44.055Z,43.75
2019-01-19T23:00:36.800Z,40.35
2019-01-19T23:03:05.529Z,33.20
2019-01-19T23:05:34.086Z,46.25
2019-01-19T23:08:02.676Z,31.30
2019-01-19T23:10:31.252Z,29.70
2019-01-19T23:12:59.836Z,26.85
2019-01-19T23:15:28.398Z,27.98
2019-01-19T23:17:56.988Z,25.02
2019-01-19T23:20:25.548Z,26.25
2019-01-19T23:22:54.203Z,37.53
2019-01-19T23:25:22.765Z,34.40
2019-01-19T23:27:51.348Z,37.28
2019-01-19T23:30:19.980Z,36.83
2019-01-19T23:32:48.604Z,33.67
2019-01-19T23:35:17.192Z,28.73
2019-01-19T23:37:45.756Z,27.67
2019-01-19T23:40:14.588Z,29.02
2019-01-19T23:42:47.319Z,28.80
2019-01-19T23:45:13.691Z,28.07
2019-01-19T23:47:42.248Z,31.85
2019-01-19T23:50:11.374Z,33.78
2019-01-19T23:52:40.017Z,32.13
2019-01-19T23:55:08.738Z,40.10
2019-01-19T23:57:37.368Z,40.65
